Time;durP1;ratioP1;P1;durP2;ratioP2;P2;SDS_P1;SDS_P2;PMS_P1;PMS_P2;Temp;Humidity;BMP_temperature;BMP_pressure;BME280_temperature;BME280_humidity;BME280_pressure;Samples;Min_cycle;Max_cycle;Signal;HPM_P1;HPM_P2
2023/09/24 00:01:23;;;;;;;1.50;1.10;;;13.30;98.20;;;;;;4946337;28;20478;-77
2023/09/24 00:03:50;;;;;;;1.50;1.00;;;13.30;98.20;;;;;;4960301;28;20458;-79
2023/09/24 00:06:18;;;;;;;1.50;1.10;;;13.30;98.20;;;;;;4950990;28;20474;-78
2023/09/24 00:08:45;;;;;;;1.50;1.10;;;13.20;98.20;;;;;;4970297;28;20462;-80
2023/09/24 00:11:12;;;;;;;1.50;1.00;;;13.20;98.20;;;;;;4944414;28;20549;-80
2023/09/24 00:13:39;;;;;;;1.53;1.10;;;13.20;98.20;;;;;;4952533;28;20465;-79
2023/09/24 00:16:06;;;;;;;1.53;1.10;;;13.20;98.20;;;;;;4939932;28;20483;-80
2023/09/24 00:18:33;;;;;;;1.50;1.03;;;13.10;98.20;;;;;;4970645;28;20462;-80
2023/09/24 00:21:00;;;;;;;1.50;1.17;;;13.10;98.20;;;;;;4945042;28;20488;-79
2023/09/24 00:23:29;;;;;;;1.50;1.00;;;13.10;98.20;;;;;;4960553;28;20474;-79
2023/09/24 00:25:56;;;;;;;1.50;1.00;;;13.00;98.20;;;;;;4942704;28;20482;-79
2023/09/24 00:28:23;;;;;;;1.50;1.10;;;13.00;98.20;;;;;;4969577;28;20554;-81
2023/09/24 00:30:50;;;;;;;1.50;1.00;;;13.00;98.20;;;;;;4934834;28;20469;-80
2023/09/24 00:33:17;;;;;;;1.50;1.00;;;12.90;98.20;;;;;;4951745;28;20517;-80
2023/09/24 00:35:44;;;;;;;1.50;1.10;;;12.90;98.20;;;;;;4950354;28;20551;-81
2023/09/24 00:38:11;;;;;;;1.53;1.10;;;12.90;98.20;;;;;;4949854;28;20493;-79
2023/09/24 00:40:39;;;;;;;1.50;1.00;;;12.90;98.20;;;;;;4965712;28;20477;-79
2023/09/24 00:43:28;;;;;;;1.50;1.07;;;12.90;98.20;;;;;;4960511;28;20503;-79
2023/09/24 00:45:56;;;;;;;1.50;1.10;;;12.80;98.20;;;;;;4948907;28;20482;-82
2023/09/24 00:48:28;;;;;;;1.50;1.00;;;12.80;98.20;;;;;;4973578;28;20475;-82
2023/09/24 00:50:57;;;;;;;1.50;1.00;;;12.80;98.20;;;;;;4944574;28;20951;-81
2023/09/24 00:53:25;;;;;;;1.50;1.00;;;12.70;98.20;;;;;;4979787;28;20473;-80
2023/09/24 00:55:54;;;;;;;1.93;1.67;;;12.70;98.20;;;;;;4948469;28;20482;-81
2023/09/24 00:58:21;;;;;;;1.50;1.00;;;12.70;98.20;;;;;;4975523;28;20463;-81
2023/09/24 01:00:48;;;;;;;1.50;1.10;;;12.60;98.20;;;;;;4955975;28;20491;-82
2023/09/24 01:03:16;;;;;;;1.50;1.10;;;12.60;98.20;;;;;;4980094;28;20478;-82
2023/09/24 01:05:43;;;;;;;1.50;1.00;;;12.60;98.20;;;;;;4956095;28;20492;-82
2023/09/24 01:08:10;;;;;;;1.53;1.17;;;12.50;98.20;;;;;;4953398;28;20482;-81
2023/09/24 01:10:38;;;;;;;1.53;1.00;;;12.50;98.20;;;;;;4953398;28;20465;-82
2023/09/24 01:13:06;;;;;;;1.50;1.00;;;12.50;98.20;;;;;;4951399;28;20516;-82
2023/09/24 01:15:33;;;;;;;1.50;1.10;;;12.50;98.20;;;;;;4955017;28;20750;-83
2023/09/24 01:18:03;;;;;;;1.50;1.00;;;12.40;98.20;;;;;;4971734;28;20507;-81
2023/09/24 01:20:31;;;;;;;1.50;1.10;;;12.40;98.20;;;;;;4956200;28;20498;-79
2023/09/24 01:23:03;;;;;;;1.50;1.10;;;12.30;98.20;;;;;;4965587;28;20477;-82
2023/09/24 01:25:35;;;;;;;1.50;1.00;;;12.30;98.20;;;;;;4949671;28;20671;-81
2023/09/24 01:28:04;;;;;;;1.50;1.10;;;12.30;98.20;;;;;;4951576;28;20900;-80
2023/09/24 01:30:31;;;;;;;1.57;1.20;;;12.30;98.20;;;;;;4954934;28;20469;-80
2023/09/24 01:32:58;;;;;;;1.50;1.00;;;12.30;98.20;;;;;;4963997;28;20474;-80
2023/09/24 01:35:27;;;;;;;1.50;1.10;;;12.20;98.20;;;;;;4954105;28;20474;-81
2023/09/24 01:37:55;;;;;;;1.57;1.20;;;12.20;98.20;;;;;;4971521;28;20545;-82
2023/09/24 01:40:24;;;;;;;1.60;1.10;;;12.20;98.20;;;;;;4954887;28;20787;-81
2023/09/24 01:42:52;;;;;;;1.50;1.10;;;12.20;98.20;;;;;;4969213;28;20481;-82
2023/09/24 01:45:19;;;;;;;1.50;1.10;;;12.10;98.20;;;;;;4959029;28;20912;-81
2023/09/24 01:47:49;;;;;;;1.53;1.10;;;12.10;98.20;;;;;;4951337;28;20486;-82
2023/09/24 01:50:17;;;;;;;1.50;1.10;;;12.00;98.20;;;;;;4955889;28;20500;-80
2023/09/24 01:52:45;;;;;;;1.53;1.10;;;12.00;98.20;;;;;;4965387;28;20508;-82
2023/09/24 01:55:15;;;;;;;1.57;1.20;;;12.00;98.20;;;;;;4959794;28;20471;-81
2023/09/24 01:57:44;;;;;;;1.50;1.10;;;12.00;98.20;;;;;;4964724;28;20495;-81
2023/09/24 02:00:15;;;;;;;1.50;1.10;;;11.90;98.20;;;;;;4964718;28;20476;-80
2023/09/24 02:02:43;;;;;;;1.60;1.20;;;11.90;98.20;;;;;;4947186;28;20922;-82
2023/09/24 02:05:11;;;;;;;1.50;1.10;;;11.80;98.20;;;;;;4963626;28;20470;-82
2023/09/24 02:07:38;;;;;;;1.57;1.10;;;11.80;98.20;;;;;;4967835;28;20520;-81
2023/09/24 02:10:06;;;;;;;1.50;1.10;;;11.80;98.20;;;;;;4974405;28;20569;-81
2023/09/24 02:12:35;;;;;;;1.50;1.10;;;11.80;98.20;;;;;;4959430;28;21179;-83
2023/09/24 02:15:10;;;;;;;1.50;1.10;;;11.80;98.20;;;;;;4965098;28;20593;-83
2023/09/24 02:17:40;;;;;;;1.50;1.10;;;11.80;98.20;;;;;;4966501;28;20515;-79
2023/09/24 02:20:14;;;;;;;1.50;1.10;;;11.70;98.20;;;;;;4953718;28;20478;-80
2023/09/24 02:22:41;;;;;;;1.50;1.10;;;11.70;98.20;;;;;;4949058;28;21112;-82
2023/09/24 02:25:13;;;;;;;1.53;1.20;;;11.70;98.20;;;;;;4957877;28;20463;-81
2023/09/24 02:27:41;;;;;;;1.57;1.10;;;11.70;98.20;;;;;;4951490;28;20512;-80
2023/09/24 02:30:11;;;;;;;1.53;1.10;;;11.70;98.20;;;;;;4968433;28;20907;-81
2023/09/24 02:32:38;;;;;;;1.50;1.10;;;11.60;98.20;;;;;;4963538;28;20524;-82
2023/09/24 02:35:07;;;;;;;1.50;1.10;;;11.60;98.20;;;;;;4964125;28;20458;-81
2023/09/24 02:37:33;;;;;;;1.50;1.10;;;11.60;98.20;;;;;;4968330;28;20984;-80
2023/09/24 02:40:03;;;;;;;1.50;1.10;;;11.60;98.20;;;;;;4967076;28;20477;-81
2023/09/24 02:42:30;;;;;;;1.50;1.10;;;11.60;98.20;;;;;;4958032;28;20494;-80
2023/09/24 02:44:57;;;;;;;1.53;1.10;;;11.60;98.20;;;;;;4955926;28;20752;-81
2023/09/24 02:47:25;;;;;;;1.50;1.10;;;11.60;98.20;;;;;;4970497;28;20497;-80
2023/09/24 02:49:52;;;;;;;1.50;1.10;;;11.60;98.20;;;;;;4956447;28;20466;-81
2023/09/24 02:52:18;;;;;;;1.57;1.20;;;11.60;98.20;;;;;;4949113;28;20486;-82
2023/09/24 02:54:45;;;;;;;1.50;1.10;;;11.60;98.20;;;;;;4960974;28;20501;-83
2023/09/24 02:57:12;;;;;;;1.50;1.20;;;11.50;98.20;;;;;;4963074;28;20489;-82
2023/09/24 02:59:39;;;;;;;1.50;1.20;;;11.50;98.20;;;;;;4966010;28;20557;-82
2023/09/24 03:02:06;;;;;;;1.50;1.10;;;11.50;98.20;;;;;;4945630;28;20913;-81
2023/09/24 03:04:35;;;;;;;1.60;1.17;;;11.50;98.20;;;;;;4993531;23;20494;-80
2023/09/24 03:07:02;;;;;;;1.50;1.10;;;11.50;98.20;;;;;;4974152;28;20522;-80
2023/09/24 03:09:30;;;;;;;1.60;1.20;;;11.50;98.20;;;;;;4983617;28;20523;-79
2023/09/24 03:11:57;;;;;;;1.50;1.10;;;11.50;98.20;;;;;;4965486;28;20482;-79
2023/09/24 03:14:24;;;;;;;1.57;1.20;;;11.40;98.20;;;;;;4964214;28;20490;-79
2023/09/24 03:16:51;;;;;;;1.57;1.20;;;11.40;98.20;;;;;;4945234;28;21190;-79
2023/09/24 03:19:17;;;;;;;1.50;1.10;;;11.40;98.20;;;;;;4954003;28;20529;-80
2023/09/24 03:21:46;;;;;;;1.50;1.10;;;11.50;98.20;;;;;;4949783;28;20791;-79
2023/09/24 03:24:14;;;;;;;1.53;1.10;;;11.40;98.20;;;;;;4961052;28;20482;-81
2023/09/24 03:26:50;;;;;;;1.57;1.20;;;11.40;98.20;;;;;;4952220;28;20486;-80
2023/09/24 03:29:17;;;;;;;1.50;1.10;;;11.40;98.20;;;;;;4965727;28;20470;-81
2023/09/24 03:31:44;;;;;;;1.50;1.10;;;11.40;98.20;;;;;;4950841;28;20482;-79
2023/09/24 03:34:17;;;;;;;1.60;1.20;;;11.40;98.20;;;;;;4959314;28;20486;-80
2023/09/24 03:36:54;;;;;;;1.57;1.10;;;11.30;98.20;;;;;;4956786;28;20495;-79
2023/09/24 03:39:21;;;;;;;1.50;1.10;;;11.30;98.20;;;;;;4965101;28;20557;-78
2023/09/24 03:41:47;;;;;;;1.57;1.20;;;11.30;98.20;;;;;;4945749;28;20479;-79
2023/09/24 03:44:15;;;;;;;1.50;1.10;;;11.30;98.20;;;;;;4960718;28;20481;-79
2023/09/24 03:46:42;;;;;;;1.57;1.20;;;11.20;98.20;;;;;;4949043;28;20505;-78
2023/09/24 03:49:11;;;;;;;1.53;1.10;;;11.20;98.20;;;;;;4959248;28;20468;-79
2023/09/24 03:51:38;;;;;;;1.50;1.10;;;11.30;98.20;;;;;;4955784;28;20485;-79
2023/09/24 03:54:06;;;;;;;1.53;1.10;;;11.20;98.20;;;;;;4964258;28;20605;-79
2023/09/24 03:56:33;;;;;;;1.50;1.10;;;11.20;98.20;;;;;;4955006;28;20553;-79
2023/09/24 03:59:00;;;;;;;1.50;1.20;;;11.20;98.20;;;;;;4961172;28;20554;-79
2023/09/24 04:01:27;;;;;;;1.50;1.20;;;11.20;98.20;;;;;;4946706;28;20494;-79
2023/09/24 04:03:53;;;;;;;1.50;1.10;;;11.20;98.20;;;;;;4953814;28;20490;-79
2023/09/24 04:06:21;;;;;;;1.50;1.10;;;11.20;98.20;;;;;;4951784;28;20478;-79
2023/09/24 04:08:51;;;;;;;1.50;1.10;;;11.20;98.20;;;;;;4951800;28;20466;-78
2023/09/24 04:11:20;;;;;;;1.57;1.20;;;11.20;98.20;;;;;;4947995;28;20839;-79
2023/09/24 04:13:46;;;;;;;1.50;1.10;;;11.20;98.20;;;;;;4954885;28;20482;-79
2023/09/24 04:16:14;;;;;;;1.60;1.30;;;11.20;98.20;;;;;;4959445;28;20532;-79
2023/09/24 04:18:44;;;;;;;1.50;1.10;;;11.20;98.20;;;;;;4963108;28;20475;-79
2023/09/24 04:21:17;;;;;;;1.57;1.20;;;11.30;98.20;;;;;;4962366;28;20840;-79
2023/09/24 04:23:58;;;;;;;1.50;1.17;;;11.30;98.20;;;;;;4975059;28;20478;-79
2023/09/24 04:26:26;;;;;;;1.53;1.17;;;11.30;98.20;;;;;;4959675;28;20470;-79
2023/09/24 04:28:55;;;;;;;1.50;1.10;;;11.30;98.20;;;;;;4970252;28;20738;-79
2023/09/24 04:31:22;;;;;;;1.50;1.10;;;11.30;98.20;;;;;;4963348;28;20484;-79
2023/09/24 04:33:49;;;;;;;1.60;1.20;;;11.20;98.20;;;;;;4970294;28;20486;-79
2023/09/24 04:36:18;;;;;;;1.50;1.10;;;11.30;98.20;;;;;;4961077;28;20586;-79
2023/09/24 04:38:47;;;;;;;1.57;1.10;;;11.20;98.20;;;;;;4966026;28;20469;-80
2023/09/24 04:41:15;;;;;;;1.50;1.23;;;11.20;98.20;;;;;;4954705;28;20477;-80
2023/09/24 04:43:47;;;;;;;1.50;1.10;;;11.20;98.20;;;;;;4965615;28;20868;-80
2023/09/24 04:46:14;;;;;;;1.53;1.10;;;11.20;98.20;;;;;;4961447;28;20487;-79
2023/09/24 04:48:41;;;;;;;1.57;1.10;;;11.10;98.20;;;;;;4967649;28;20463;-80
2023/09/24 04:51:12;;;;;;;1.53;1.10;;;11.10;98.20;;;;;;4960852;28;20498;-79
2023/09/24 04:53:39;;;;;;;1.50;1.20;;;11.10;98.20;;;;;;4972027;28;20492;-80
2023/09/24 04:56:07;;;;;;;1.53;1.20;;;11.10;98.20;;;;;;4967467;28;20477;-79
2023/09/24 04:58:34;;;;;;;1.50;1.10;;;11.00;98.20;;;;;;4976832;28;20891;-80
2023/09/24 05:01:07;;;;;;;1.50;1.07;;;11.00;98.20;;;;;;4962879;28;20501;-80
2023/09/24 05:03:37;;;;;;;1.53;1.10;;;11.00;98.20;;;;;;4963431;28;20504;-80
2023/09/24 05:06:04;;;;;;;1.50;1.20;;;11.00;98.20;;;;;;4968412;28;20499;-82
2023/09/24 05:08:32;;;;;;;1.50;1.10;;;10.90;98.20;;;;;;4979238;28;20476;-82
2023/09/24 05:11:02;;;;;;;1.53;1.10;;;10.90;98.20;;;;;;4968811;28;20493;-81
2023/09/24 05:13:30;;;;;;;1.50;1.10;;;10.90;98.20;;;;;;4966543;28;20536;-80
2023/09/24 05:16:00;;;;;;;1.50;1.10;;;10.90;98.20;;;;;;4959366;28;20550;-79
2023/09/24 05:18:28;;;;;;;1.50;1.10;;;10.90;98.20;;;;;;4970982;28;20495;-79
2023/09/24 05:21:07;;;;;;;1.50;1.10;;;10.90;98.20;;;;;;4967461;28;20477;-80
2023/09/24 05:23:34;;;;;;;1.53;1.20;;;10.80;98.20;;;;;;4974081;28;20512;-80
2023/09/24 05:26:01;;;;;;;1.60;1.20;;;10.80;98.20;;;;;;4958002;28;20529;-80
2023/09/24 05:28:28;;;;;;;1.50;1.10;;;10.90;98.20;;;;;;4959825;28;20524;-80
2023/09/24 05:30:57;;;;;;;1.50;1.10;;;10.90;98.20;;;;;;4961705;28;20539;-80
2023/09/24 05:33:24;;;;;;;1.50;1.10;;;10.90;98.20;;;;;;4972985;28;20478;-81
2023/09/24 05:36:16;;;;;;;1.60;1.27;;;10.90;98.20;;;;;;4963008;28;20530;-81
2023/09/24 05:38:43;;;;;;;1.57;1.20;;;10.90;98.20;;;;;;4972006;28;20503;-80
2023/09/24 05:41:10;;;;;;;1.50;1.10;;;10.90;98.20;;;;;;4959596;28;20600;-80
2023/09/24 05:43:38;;;;;;;1.57;1.20;;;10.90;98.20;;;;;;4968640;28;20881;-80
2023/09/24 05:46:05;;;;;;;1.50;1.10;;;10.90;98.20;;;;;;4961847;28;20462;-80
2023/09/24 05:48:32;;;;;;;1.50;1.10;;;10.90;98.20;;;;;;4971767;28;21007;-80
2023/09/24 05:51:03;;;;;;;1.50;1.10;;;10.90;98.20;;;;;;4957902;28;20473;-79
2023/09/24 05:53:32;;;;;;;1.50;1.10;;;11.00;98.20;;;;;;4971519;28;20482;-79
2023/09/24 05:55:59;;;;;;;1.53;1.10;;;11.00;98.20;;;;;;4958285;28;20458;-80
2023/09/24 05:58:26;;;;;;;1.60;1.20;;;11.00;98.20;;;;;;4974811;28;20561;-80
2023/09/24 06:00:55;;;;;;;1.50;1.10;;;11.00;98.20;;;;;;4957796;28;20468;-80
2023/09/24 06:03:22;;;;;;;1.53;1.10;;;11.00;98.20;;;;;;4966905;28;20486;-81
2023/09/24 06:05:49;;;;;;;1.50;1.10;;;11.00;98.20;;;;;;4958487;28;20567;-80
2023/09/24 06:08:16;;;;;;;1.53;1.10;;;11.10;98.20;;;;;;4976032;28;20561;-80
2023/09/24 06:10:45;;;;;;;1.50;1.10;;;11.10;98.20;;;;;;4970626;28;20478;-80
2023/09/24 06:13:13;;;;;;;1.50;1.10;;;11.20;98.20;;;;;;4944483;28;20956;-81
2023/09/24 06:15:40;;;;;;;1.60;1.20;;;11.30;98.20;;;;;;4968999;28;20526;-80
2023/09/24 06:18:07;;;;;;;1.87;1.67;;;11.40;98.20;;;;;;4969264;28;20486;-80
2023/09/24 06:20:38;;;;;;;1.50;1.10;;;11.50;98.20;;;;;;4968364;28;20482;-81
2023/09/24 06:23:05;;;;;;;1.57;1.20;;;11.60;98.20;;;;;;4962718;28;20561;-81
2023/09/24 06:25:38;;;;;;;1.53;1.10;;;11.70;98.20;;;;;;4968383;28;20470;-81
2023/09/24 06:28:10;;;;;;;1.50;1.10;;;11.90;98.20;;;;;;4959856;28;20516;-80
2023/09/24 06:30:38;;;;;;;1.57;1.20;;;12.00;98.20;;;;;;4969949;28;20479;-80
2023/09/24 06:33:05;;;;;;;1.53;1.10;;;12.20;98.20;;;;;;4959896;28;20474;-81
2023/09/24 06:38:21;;;;;;;1.53;1.10;;;12.60;98.20;;;;;;4939615;28;20479;-80
2023/09/24 06:40:59;;;;;;;1.50;1.10;;;12.70;98.20;;;;;;4958252;28;20994;-79
2023/09/24 06:43:28;;;;;;;1.60;1.20;;;12.80;98.20;;;;;;4948193;28;20549;-79
2023/09/24 06:45:56;;;;;;;1.53;1.10;;;12.90;98.20;;;;;;4960995;28;20480;-81
2023/09/24 06:48:23;;;;;;;1.60;1.10;;;13.00;98.20;;;;;;4960680;28;20462;-80
2023/09/24 06:50:50;;;;;;;1.57;1.10;;;13.00;98.20;;;;;;4965460;28;20908;-80
2023/09/24 06:53:18;;;;;;;1.50;1.03;;;13.10;98.20;;;;;;4972013;28;20466;-81
2023/09/24 06:55:46;;;;;;;1.50;1.10;;;13.20;98.20;;;;;;4971345;28;20474;-81
2023/09/24 06:58:15;;;;;;;1.50;1.00;;;13.30;98.20;;;;;;4964314;28;20541;-81
2023/09/24 07:00:46;;;;;;;1.50;1.00;;;13.40;98.20;;;;;;4973131;28;20857;-80
2023/09/24 07:03:16;;;;;;;1.50;1.00;;;13.60;98.20;;;;;;4945966;28;20477;-81
2023/09/24 07:05:44;;;;;;;1.57;1.10;;;13.70;98.20;;;;;;4969471;28;20906;-81
2023/09/24 07:08:15;;;;;;;1.50;1.00;;;13.90;98.20;;;;;;4942610;28;20515;-81
2023/09/24 07:10:42;;;;;;;1.50;1.00;;;14.00;98.20;;;;;;4967442;28;20467;-80
2023/09/24 07:13:09;;;;;;;1.50;1.00;;;14.00;98.20;;;;;;4942823;28;20505;-80
2023/09/24 07:15:36;;;;;;;1.60;1.10;;;14.00;98.20;;;;;;4967866;28;20541;-80
2023/09/24 07:18:08;;;;;;;1.50;1.00;;;14.10;98.20;;;;;;4949805;28;21105;-80
2023/09/24 07:20:36;;;;;;;1.70;1.30;;;14.20;98.20;;;;;;4970615;28;20458;-82
2023/09/24 07:23:03;;;;;;;1.50;1.00;;;14.30;98.20;;;;;;4952144;28;20581;-79
2023/09/24 07:25:30;;;;;;;1.50;1.00;;;14.40;98.20;;;;;;4972045;28;20573;-80
2023/09/24 07:28:00;;;;;;;1.70;1.60;;;14.60;98.20;;;;;;4961185;28;20496;-81
2023/09/24 07:30:27;;;;;;;1.53;1.10;;;14.60;98.20;;;;;;4967887;28;20466;-80
2023/09/24 07:32:56;;;;;;;1.50;1.00;;;14.60;98.20;;;;;;4942358;28;20475;-80
2023/09/24 07:39:16;;;;;;;1.50;1.00;;;15.00;98.20;;;;;;4932819;28;20484;-81
2023/09/24 07:41:49;;;;;;;1.50;1.00;;;15.20;98.20;;;;;;4948506;28;20565;-81
2023/09/24 07:44:18;;;;;;;1.53;1.00;;;15.30;98.20;;;;;;4966879;28;20486;-81
2023/09/24 07:46:45;;;;;;;1.50;1.00;;;15.30;98.20;;;;;;4961488;28;20474;-81
2023/09/24 07:49:13;;;;;;;1.50;1.00;;;15.30;98.20;;;;;;4973352;28;20478;-82
2023/09/24 07:51:39;;;;;;;1.50;1.00;;;15.50;98.20;;;;;;4963213;28;20474;-80
2023/09/24 07:54:29;;;;;;;1.50;1.00;;;15.60;98.20;;;;;;4979409;28;20487;-83
2023/09/24 07:56:58;;;;;;;1.50;1.00;;;15.70;98.20;;;;;;4959761;28;20533;-80
2023/09/24 07:59:24;;;;;;;1.50;1.00;;;15.70;98.20;;;;;;4970267;28;20472;-80
2023/09/24 08:01:51;;;;;;;1.57;1.10;;;15.70;98.20;;;;;;4957020;28;20578;-79
2023/09/24 08:04:19;;;;;;;1.53;1.00;;;15.80;98.20;;;;;;4968863;28;21262;-82
2023/09/24 08:06:46;;;;;;;1.70;1.33;;;15.80;98.20;;;;;;4955188;28;20478;-84
2023/09/24 08:09:13;;;;;;;1.53;1.00;;;16.00;98.20;;;;;;4964737;28;20821;-81
2023/09/24 08:11:41;;;;;;;1.50;1.00;;;16.10;98.20;;;;;;4959052;28;20597;-79
2023/09/24 08:14:08;;;;;;;1.57;0.97;;;16.20;98.20;;;;;;4970599;28;20481;-81
2023/09/24 08:16:35;;;;;;;1.50;1.00;;;16.30;98.20;;;;;;4969519;28;20486;-81
2023/09/24 08:19:03;;;;;;;1.50;1.00;;;16.30;98.20;;;;;;4979746;28;20489;-80
2023/09/24 08:21:30;;;;;;;1.50;0.93;;;16.50;98.20;;;;;;4961408;28;20549;-82
2023/09/24 08:24:17;;;;;;;1.50;0.90;;;16.70;98.20;;;;;;4981229;28;20512;-79
2023/09/24 08:26:45;;;;;;;1.50;0.90;;;16.80;98.20;;;;;;4948055;28;20471;-81
2023/09/24 08:29:12;;;;;;;1.50;1.00;;;16.80;98.20;;;;;;4958042;28;20495;-81
2023/09/24 08:31:39;;;;;;;1.50;1.00;;;16.90;98.20;;;;;;4958938;28;20476;-81
2023/09/24 08:37:44;;;;;;;1.50;1.00;;;17.00;98.20;;;;;;4883384;29;20473;-82
2023/09/24 08:40:17;;;;;;;1.50;1.00;;;17.10;98.20;;;;;;4905740;29;20465;-81
2023/09/24 08:42:47;;;;;;;1.50;0.97;;;17.20;98.20;;;;;;4941568;28;20485;-82
2023/09/24 08:45:15;;;;;;;1.50;1.00;;;17.30;98.20;;;;;;4970534;28;20481;-83
2023/09/24 08:47:45;;;;;;;1.50;0.90;;;17.50;98.20;;;;;;4952350;28;20486;-80
2023/09/24 08:50:12;;;;;;;1.50;0.97;;;17.60;98.20;;;;;;4966789;28;20793;-82
2023/09/24 08:52:40;;;;;;;1.53;1.00;;;17.80;98.20;;;;;;4952016;28;20718;-81
2023/09/24 08:55:09;;;;;;;1.50;0.90;;;17.90;98.20;;;;;;4963281;28;20488;-81
2023/09/24 08:57:36;;;;;;;1.53;1.00;;;18.00;98.20;;;;;;4943195;28;20494;-82
2023/09/24 09:00:09;;;;;;;1.50;0.93;;;18.10;98.20;;;;;;4961093;28;20470;-81
2023/09/24 09:02:37;;;;;;;1.50;0.90;;;18.30;98.20;;;;;;4939139;28;20542;-81
2023/09/24 09:05:07;;;;;;;1.50;0.90;;;18.50;98.20;;;;;;4968427;28;20580;-81
2023/09/24 09:07:34;;;;;;;1.50;0.90;;;18.50;98.20;;;;;;4948395;28;20480;-81
2023/09/24 09:10:04;;;;;;;1.53;1.00;;;18.60;98.20;;;;;;4968698;28;20465;-79
2023/09/24 09:12:31;;;;;;;1.50;0.90;;;18.80;98.20;;;;;;4950965;28;20513;-80
2023/09/24 09:14:58;;;;;;;1.50;0.90;;;19.00;98.20;;;;;;4967341;28;20505;-83
2023/09/24 09:17:40;;;;;;;1.50;0.90;;;19.20;98.20;;;;;;4961078;28;20482;-80
2023/09/24 09:20:08;;;;;;;1.50;1.00;;;19.30;98.20;;;;;;4972554;28;21058;-82
2023/09/24 09:22:54;;;;;;;1.50;1.00;;;19.60;98.20;;;;;;4942825;28;20502;-81
2023/09/24 09:25:21;;;;;;;1.50;0.90;;;19.80;98.20;;;;;;4969565;28;20484;-80
2023/09/24 09:27:50;;;;;;;1.50;0.90;;;20.00;98.20;;;;;;4940339;28;20475;-81
2023/09/24 09:30:18;;;;;;;1.50;0.90;;;20.20;98.20;;;;;;4966700;28;20470;-81
2023/09/24 09:32:49;;;;;;;1.50;0.90;;;20.30;96.50;;;;;;4956500;28;20528;-81
2023/09/24 09:35:17;;;;;;;1.50;1.00;;;20.50;97.50;;;;;;4972261;28;20509;-83
2023/09/24 09:37:46;;;;;;;1.50;0.90;;;20.60;96.20;;;;;;4958643;28;20482;-81
2023/09/24 09:40:14;;;;;;;1.50;0.90;;;20.70;95.50;;;;;;4970327;28;20498;-81
2023/09/24 09:42:43;;;;;;;1.50;0.90;;;20.90;95.50;;;;;;4936060;28;20507;-80
2023/09/24 09:45:47;;;;;;;2.00;1.67;;;21.10;94.90;;;;;;4976320;28;20513;-82
2023/09/24 09:48:18;;;;;;;1.50;0.90;;;21.10;91.10;;;;;;4941808;28;20572;-81
2023/09/24 09:50:47;;;;;;;1.50;0.90;;;21.10;93.70;;;;;;4969983;28;20489;-81
2023/09/24 09:53:19;;;;;;;1.50;0.90;;;21.30;93.10;;;;;;4943616;28;20474;-80
2023/09/24 09:55:55;;;;;;;1.50;0.90;;;21.50;94.10;;;;;;4969292;28;20490;-83
2023/09/24 09:58:24;;;;;;;1.47;0.90;;;21.50;93.70;;;;;;4946682;28;20473;-82
2023/09/24 10:01:00;;;;;;;1.50;0.90;;;21.70;92.50;;;;;;4961606;28;21103;-80
2023/09/24 10:03:30;;;;;;;1.50;0.90;;;21.80;91.30;;;;;;4971270;28;20820;-82
2023/09/24 10:06:02;;;;;;;1.50;0.90;;;21.80;91.80;;;;;;4958760;28;20476;-80
2023/09/24 10:11:55;;;;;;;1.50;0.90;;;22.10;90.30;;;;;;4953826;28;20546;-80
2023/09/24 10:14:42;;;;;;;1.50;0.90;;;22.10;89.80;;;;;;4917367;28;20481;-81
2023/09/24 10:17:23;;;;;;;1.50;0.90;;;22.10;89.90;;;;;;4963676;28;20594;-80
2023/09/24 10:19:53;;;;;;;1.50;0.90;;;22.20;89.50;;;;;;4971104;28;20524;-79
2023/09/24 10:23:07;;;;;;;1.47;0.83;;;22.30;90.70;;;;;;4947653;28;20478;-81
2023/09/24 10:26:08;;;;;;;1.47;0.90;;;22.40;88.40;;;;;;4858316;29;20520;-81
2023/09/24 10:28:54;;;;;;;1.47;0.90;;;22.50;89.90;;;;;;4879887;28;20534;-82
2023/09/24 10:34:06;;;;;;;1.50;0.90;;;22.40;86.20;;;;;;4981100;23;21132;-81
2023/09/24 10:36:37;;;;;;;1.50;0.80;;;22.30;87.90;;;;;;4960170;28;20466;-80
2023/09/24 10:39:06;;;;;;;1.50;0.90;;;22.30;84.10;;;;;;4969263;28;20557;-79
2023/09/24 10:42:09;;;;;;;1.50;0.90;;;22.30;85.40;;;;;;4959446;28;20613;-80
2023/09/24 10:44:39;;;;;;;1.50;0.90;;;22.40;88.00;;;;;;4968991;28;20497;-82
2023/09/24 10:47:25;;;;;;;1.47;0.90;;;22.50;85.10;;;;;;4957355;28;20497;-82
2023/09/24 10:50:02;;;;;;;1.50;0.90;;;22.50;84.00;;;;;;4967212;28;20957;-82
2023/09/24 10:56:09;;;;;;;1.47;0.90;;;22.50;83.30;;;;;;4968145;28;20458;-84
2023/09/24 10:58:36;;;;;;;1.47;0.90;;;22.50;84.10;;;;;;4952981;28;20485;-81
2023/09/24 11:03:56;;;;;;;1.50;0.90;;;22.40;84.20;;;;;;4942632;28;20542;-79
2023/09/24 11:06:39;;;;;;;1.47;0.80;;;22.50;83.40;;;;;;4957721;28;20521;-82
2023/09/24 11:09:17;;;;;;;1.50;0.83;;;22.50;82.50;;;;;;4967938;28;20656;-81
2023/09/24 11:12:17;;;;;;;1.47;0.90;;;22.30;82.60;;;;;;4951722;28;20561;-81
2023/09/24 11:14:56;;;;;;;1.47;0.90;;;22.40;85.00;;;;;;4964539;28;20485;-84
2023/09/24 11:17:24;;;;;;;1.47;0.90;;;22.50;85.10;;;;;;4960258;28;20545;-81
2023/09/24 11:19:51;;;;;;;1.50;0.90;;;22.70;87.50;;;;;;4970253;28;20486;-81
2023/09/24 11:22:22;;;;;;;1.50;0.90;;;22.80;84.00;;;;;;4958080;28;20851;-81
2023/09/24 11:25:05;;;;;;;1.43;0.90;;;22.80;85.90;;;;;;4971525;28;20502;-80
2023/09/24 11:27:33;;;;;;;1.50;0.90;;;23.10;85.10;;;;;;4963587;28;20650;-81
2023/09/24 11:30:07;;;;;;;1.50;0.80;;;23.30;83.30;;;;;;4970264;28;20494;-81
2023/09/24 11:32:55;;;;;;;1.50;0.90;;;23.40;83.50;;;;;;4948872;28;20867;-82
2023/09/24 11:35:39;;;;;;;;;;;;;;;;;;;;;
2023/09/24 11:38:14;;;;;;;1.50;0.90;;;22.90;82.30;;;;;;4951569;28;20513;-82
2023/09/24 11:40:59;;;;;;;1.50;0.90;;;22.90;83.10;;;;;;4970946;28;20526;-81
2023/09/24 11:43:30;;;;;;;1.50;0.90;;;23.00;84.10;;;;;;4939650;28;20483;-81
2023/09/24 11:45:59;;;;;;;1.43;0.90;;;23.20;83.40;;;;;;4956253;28;20517;-80
2023/09/24 11:48:28;;;;;;;1.40;0.83;;;23.40;82.60;;;;;;4972147;28;20533;-81
2023/09/24 11:50:56;;;;;;;1.50;0.80;;;23.70;82.80;;;;;;4956083;28;21129;-80
2023/09/24 11:53:28;;;;;;;1.70;1.30;;;23.90;82.10;;;;;;4963814;28;20462;-80
2023/09/24 11:55:57;;;;;;;1.47;0.83;;;24.00;81.50;;;;;;4954933;28;20484;-80
2023/09/24 11:58:26;;;;;;;1.47;0.90;;;24.20;81.80;;;;;;4961580;28;20489;-81
2023/09/24 12:01:21;;;;;;;1.47;0.80;;;24.20;81.10;;;;;;4956468;28;20870;-82
2023/09/24 12:03:49;;;;;;;1.50;0.90;;;24.10;78.20;;;;;;4965894;28;20500;-79
2023/09/24 12:06:16;;;;;;;1.40;0.80;;;24.20;80.00;;;;;;4953831;28;20551;-80
2023/09/24 12:11:58;;;;;;;1.47;0.87;;;24.30;78.40;;;;;;4920668;28;20504;-80
2023/09/24 12:14:26;;;;;;;1.43;0.90;;;24.30;79.80;;;;;;4967318;28;20503;-81
2023/09/24 12:16:54;;;;;;;1.43;0.90;;;24.40;76.80;;;;;;4958429;28;20521;-79
2023/09/24 12:19:21;;;;;;;1.40;0.90;;;24.50;79.30;;;;;;4968587;28;20572;-80
2023/09/24 12:21:48;;;;;;;1.50;0.80;;;24.60;77.40;;;;;;4951989;28;20494;-80
2023/09/24 12:24:27;;;;;;;1.40;0.90;;;24.70;77.70;;;;;;4960259;28;20506;-80
2023/09/24 12:26:54;;;;;;;1.40;0.80;;;24.70;77.30;;;;;;4951932;28;20476;-81
2023/09/24 12:29:21;;;;;;;1.40;0.90;;;24.70;75.60;;;;;;4961698;28;20470;-81
2023/09/24 12:31:48;;;;;;;1.50;0.90;;;24.70;76.30;;;;;;4949532;28;20483;-80
2023/09/24 12:34:16;;;;;;;1.50;0.90;;;24.70;76.60;;;;;;4961438;28;20493;-79
2023/09/24 12:36:43;;;;;;;1.43;0.80;;;24.80;76.60;;;;;;4958878;28;20492;-79
2023/09/24 12:39:10;;;;;;;1.47;0.90;;;24.90;75.20;;;;;;4970204;28;20579;-78
2023/09/24 12:41:38;;;;;;;1.40;0.90;;;24.90;76.60;;;;;;4958479;28;20504;-80
2023/09/24 12:44:10;;;;;;;1.43;0.87;;;25.00;76.30;;;;;;4969915;28;20485;-81
2023/09/24 12:46:37;;;;;;;1.40;0.80;;;24.80;74.10;;;;;;4959859;28;21063;-80
2023/09/24 12:49:04;;;;;;;1.50;0.90;;;24.80;75.70;;;;;;4963879;28;21031;-80
2023/09/24 12:51:33;;;;;;;1.43;0.80;;;24.80;75.60;;;;;;4958829;28;20491;-80
2023/09/24 12:54:03;;;;;;;1.40;0.87;;;24.80;75.90;;;;;;4965619;28;20486;-80
2023/09/24 12:56:30;;;;;;;1.40;0.90;;;24.90;76.90;;;;;;4956095;28;20482;-81
2023/09/24 12:59:20;;;;;;;1.50;0.90;;;25.00;74.30;;;;;;4954342;28;20548;-84
2023/09/24 13:02:37;;;;;;;1.40;0.90;;;25.00;72.70;;;;;;4947032;28;20477;-82
2023/09/24 13:05:12;;;;;;;1.40;0.80;;;24.90;74.90;;;;;;4971548;28;20486;-82
2023/09/24 13:07:46;;;;;;;1.50;0.90;;;25.00;77.10;;;;;;4958341;28;20484;-79
2023/09/24 13:10:18;;;;;;;1.43;0.87;;;25.10;77.60;;;;;;4975604;28;20585;-83
2023/09/24 13:12:46;;;;;;;1.47;0.87;;;25.30;77.30;;;;;;4954072;28;20482;-81
2023/09/24 13:15:13;;;;;;;1.50;0.90;;;25.40;77.10;;;;;;4971076;28;20556;-81
2023/09/24 13:17:40;;;;;;;1.40;0.80;;;25.40;77.00;;;;;;4954790;28;20669;-80
2023/09/24 13:21:00;;;;;;;1.50;0.90;;;25.50;76.10;;;;;;4969958;28;20530;-83
2023/09/24 13:26:39;;;;;;;1.43;0.90;;;25.10;73.90;;;;;;4933627;28;20482;-80
2023/09/24 13:29:06;;;;;;;1.40;0.80;;;25.00;77.70;;;;;;4966557;28;20509;-82
2023/09/24 13:31:33;;;;;;;1.40;0.80;;;25.00;75.40;;;;;;4952957;28;20486;-83
2023/09/24 13:34:08;;;;;;;1.40;0.90;;;24.70;75.40;;;;;;4966048;28;20846;-81